createdAt,value
2022-09-09T00:00:34.323Z,92.300000
2022-09-09T00:05:18.632Z,92.228000
2022-09-09T00:10:24.032Z,91.760000
2022-09-09T00:15:28.559Z,91.556000
2022-09-09T00:20:34.080Z,90.824000
2022-09-09T00:25:18.203Z,89.804000
2022-09-09T00:30:24.655Z,89.535714
2022-09-09T00:35:28.383Z,88.976000
2022-09-09T00:40:35.414Z,87.512000
2022-09-09T00:45:22.910Z,86.231429
2022-09-09T00:50:30.785Z,85.616000
2022-09-09T00:55:16.845Z,85.280000
2022-09-09T01:05:19.562Z,83.948000
2022-09-09T01:10:25.190Z,83.814286
2022-09-09T01:15:32.291Z,83.428571
2022-09-09T01:20:25.306Z,82.856000
2022-09-09T01:25:31.710Z,82.400000
2022-09-09T01:30:17.605Z,82.400000
2022-09-09T01:35:26.751Z,82.232857
2022-09-09T01:40:32.203Z,82.016000
2022-09-09T01:45:20.260Z,81.728000
2022-09-09T01:50:28.522Z,81.320000
2022-09-09T01:55:20.661Z,81.068000
2022-09-09T02:00:29.457Z,80.497143
2022-09-09T02:05:38.028Z,79.892000
2022-09-09T02:10:23.538Z,80.124286
2022-09-09T02:15:31.429Z,80.480000
2022-09-09T02:20:20.503Z,80.516000
2022-09-09T02:25:27.314Z,80.252857
2022-09-09T02:30:34.373Z,79.904000
2022-09-09T02:35:21.687Z,80.048000
2022-09-09T02:40:32.580Z,79.867143
2022-09-09T02:45:19.375Z,79.520000
2022-09-09T02:50:31.298Z,79.391429
2022-09-09T02:55:17.842Z,79.448000
2022-09-09T03:00:22.627Z,78.902857
2022-09-09T03:05:32.982Z,78.248000
2022-09-09T03:10:18.402Z,78.188000
2022-09-09T03:15:24.014Z,78.080000
2022-09-09T03:20:33.587Z,78.344000
2022-09-09T03:25:31.047Z,78.728000
2022-09-09T03:30:27.606Z,78.260000
2022-09-09T03:35:16.605Z,77.424286
2022-09-09T03:40:24.327Z,76.652000
2022-09-09T03:45:32.777Z,76.028000
2022-09-09T03:50:17.368Z,75.608000
2022-09-09T03:55:34.038Z,75.315714
2022-09-09T04:00:27.815Z,75.068000
2022-09-09T04:05:28.862Z,75.200000
2022-09-09T04:10:21.912Z,75.174286
2022-09-09T04:15:25.798Z,74.996000
2022-09-09T04:20:33.149Z,74.576000
2022-09-09T04:25:18.131Z,74.084000
2022-09-09T04:30:24.312Z,73.682857
2022-09-09T04:35:32.085Z,73.244000
2022-09-09T04:40:17.678Z,72.788000
2022-09-09T04:45:23.775Z,72.525714
2022-09-09T04:50:29.673Z,71.984000
2022-09-09T04:55:35.414Z,71.252000
2022-09-09T05:00:21.532Z,70.772000
2022-09-09T05:05:28.282Z,70.095714
2022-09-09T05:10:35.266Z,70.064000
2022-09-09T05:15:20.752Z,70.832000
2022-09-09T05:20:27.734Z,71.252857
2022-09-09T05:25:34.865Z,71.492000
2022-09-09T05:30:19.782Z,71.756000
2022-09-09T05:35:36.401Z,71.458571
2022-09-09T05:40:30.016Z,71.216000
2022-09-09T05:45:33.966Z,71.060000
2022-09-09T05:50:19.452Z,71.024000
2022-09-09T05:55:33.873Z,70.764286
2022-09-09T06:00:36.519Z,70.412000
2022-09-09T06:05:24.129Z,70.262857
2022-09-09T06:10:27.265Z,70.472000
2022-09-09T06:15:32.992Z,70.796000
2022-09-09T06:20:21.265Z,71.120000
2022-09-09T06:25:26.048Z,70.764286
2022-09-09T06:30:32.531Z,70.304000
2022-09-09T06:35:18.618Z,70.160000
2022-09-09T06:40:24.914Z,70.100000
2022-09-09T06:45:33.155Z,69.644000
2022-09-09T06:50:18.699Z,69.440000
2022-09-09T06:55:26.702Z,69.414286
2022-09-09T07:00:31.996Z,69.284000
2022-09-09T07:05:18.598Z,69.440000
2022-09-09T07:10:24.660Z,69.285714
2022-09-09T07:15:32.611Z,68.756000
2022-09-09T07:20:17.994Z,68.084000
2022-09-09T07:25:24.687Z,67.421429
2022-09-09T07:30:32.166Z,66.680000
2022-09-09T07:35:19.722Z,65.768000
2022-09-09T07:40:28.259Z,65.338571
2022-09-09T07:45:32.690Z,65.396000
2022-09-09T07:50:29.190Z,65.228000
2022-09-09T07:55:23.004Z,66.482857
2022-09-09T08:00:28.304Z,66.860000
2022-09-09T08:05:36.379Z,66.380000
2022-09-09T08:10:27.258Z,65.415714
2022-09-09T08:15:33.319Z,65.060000
2022-09-09T08:20:25.746Z,64.772857
2022-09-09T08:25:16.527Z,64.244000
2022-09-09T08:30:21.099Z,63.860000
2022-09-09T08:35:27.593Z,63.217143
2022-09-09T08:40:34.781Z,62.660000
2022-09-09T08:45:20.410Z,61.604000
2022-09-09T08:50:25.386Z,60.555714
2022-09-09T08:55:32.640Z,59.576000
2022-09-09T09:00:17.640Z,59.012000
2022-09-09T09:05:25.302Z,58.460000
2022-09-09T09:10:48.019Z,58.352000
2022-09-09T09:15:19.634Z,58.388000
2022-09-09T09:20:26.011Z,58.550000
2022-09-09T09:25:31.508Z,58.724000
2022-09-09T09:30:29.777Z,58.892000
2022-09-09T09:35:23.265Z,59.450000
2022-09-09T09:40:29.224Z,59.360000
2022-09-09T09:45:36.003Z,60.596000
2022-09-09T09:50:21.179Z,60.464000
2022-09-09T09:55:26.712Z,59.411429
2022-09-09T10:00:30.764Z,58.604000
2022-09-09T10:05:25.780Z,59.732000
2022-09-09T10:10:24.249Z,60.157143
2022-09-09T10:15:29.770Z,59.324000
2022-09-09T10:20:16.571Z,59.324000
2022-09-09T10:25:20.217Z,59.480000
2022-09-09T10:30:25.284Z,59.411429
2022-09-09T10:35:32.261Z,58.712000
2022-09-09T10:40:18.408Z,58.016000
2022-09-09T10:45:24.118Z,57.637143
2022-09-09T10:50:50.388Z,58.340000
2022-09-09T10:55:34.028Z,58.124000
2022-09-09T11:00:20.308Z,58.484000
2022-09-09T11:05:38.615Z,60.157143
2022-09-09T11:10:34.490Z,61.088000
2022-09-09T11:15:18.999Z,60.684286
2022-09-09T11:20:25.901Z,59.852000
2022-09-09T11:25:28.423Z,59.696000
2022-09-09T11:30:51.234Z,60.735714
2022-09-09T11:35:27.620Z,60.536000
2022-09-09T11:40:33.081Z,58.868000
2022-09-09T11:45:16.978Z,57.236000
2022-09-09T11:50:23.597Z,56.228000
2022-09-09T11:55:27.677Z,55.695714
2022-09-09T12:00:33.868Z,55.232000
2022-09-09T12:05:27.818Z,55.220000
2022-09-09T12:10:17.070Z,55.364000
2022-09-09T12:15:24.900Z,55.207143
2022-09-09T12:20:32.453Z,54.728000
2022-09-09T12:25:35.136Z,54.212000
2022-09-09T12:30:21.552Z,53.660000
2022-09-09T12:35:31.903Z,53.072857
2022-09-09T12:40:17.245Z,52.700000
2022-09-09T12:45:16.544Z,52.352857
2022-09-09T12:50:42.776Z,51.761429
2022-09-09T12:55:36.207Z,51.372500
2022-09-09T13:00:20.058Z,51.200000
2022-09-09T13:05:38.613Z,50.925714
2022-09-09T13:10:36.762Z,51.680000
2022-09-09T13:15:18.801Z,51.848000
2022-09-09T13:20:31.633Z,52.301429
2022-09-09T13:25:19.060Z,52.676000
2022-09-09T13:30:22.186Z,52.507143
2022-09-09T13:35:44.566Z,52.616000
2022-09-09T13:40:17.465Z,52.784000
2022-09-09T13:45:23.620Z,53.060000
2022-09-09T13:50:41.541Z,53.576000
2022-09-09T13:55:36.128Z,54.464000
2022-09-09T14:00:21.107Z,54.236000
2022-09-09T14:05:26.051Z,53.330000
2022-09-09T14:10:33.861Z,53.480000
2022-09-09T14:15:17.261Z,54.176000
2022-09-09T14:20:22.008Z,54.847143
2022-09-09T14:25:27.072Z,55.220000
2022-09-09T14:30:31.509Z,55.374286
2022-09-09T14:35:17.443Z,55.591250
2022-09-09T14:40:23.645Z,56.390000
2022-09-09T14:45:28.544Z,57.236000
2022-09-09T14:50:34.983Z,58.256000
2022-09-09T14:55:19.390Z,59.144000
2022-09-09T15:00:31.624Z,60.131429
2022-09-09T15:05:35.823Z,61.028000
2022-09-09T15:10:19.828Z,61.688000
2022-09-09T15:15:25.362Z,61.957143
2022-09-09T15:20:40.153Z,62.204000
2022-09-09T15:25:20.944Z,62.420000
2022-09-09T15:30:27.949Z,62.612857
2022-09-09T15:35:32.692Z,63.080000
2022-09-09T15:40:17.825Z,63.452000
2022-09-09T15:45:23.602Z,63.950000
2022-09-09T15:50:23.776Z,64.040000
2022-09-09T15:55:30.599Z,64.148000
2022-09-09T16:00:34.012Z,64.292000
2022-09-09T16:05:33.964Z,64.304000
2022-09-09T16:10:25.929Z,65.042857
2022-09-09T16:15:29.495Z,65.540000
2022-09-09T16:20:34.650Z,66.116000
2022-09-09T16:25:19.233Z,66.320000
2022-09-09T16:30:26.433Z,66.341429
2022-09-09T16:35:18.368Z,67.280000
2022-09-09T16:40:24.208Z,67.640000
2022-09-09T16:45:30.549Z,68.144000
2022-09-09T16:50:35.430Z,68.295714
2022-09-09T16:55:21.632Z,68.483750
2022-09-09T17:00:26.828Z,69.748571
2022-09-09T17:05:31.790Z,69.464000
2022-09-09T17:10:36.033Z,69.584000
2022-09-09T17:15:21.056Z,69.644000
2022-09-09T17:20:46.341Z,69.787143
2022-09-09T17:25:29.837Z,70.400000
2022-09-09T17:30:17.169Z,71.828000
2022-09-09T17:35:27.548Z,70.751429
2022-09-09T17:40:32.921Z,71.384000
2022-09-09T17:45:36.543Z,71.684000
2022-09-09T17:50:21.682Z,70.736000
2022-09-09T17:55:25.295Z,72.050000
2022-09-09T18:00:30.327Z,72.572000
2022-09-09T18:05:19.466Z,71.535714
2022-09-09T18:10:25.585Z,72.776000
2022-09-09T18:15:48.777Z,73.052000
2022-09-09T18:20:36.356Z,72.812000
2022-09-09T18:25:21.915Z,73.100000
2022-09-09T18:30:25.407Z,73.682857
2022-09-09T18:35:30.038Z,73.040000
2022-09-09T18:40:35.055Z,72.764000
2022-09-09T18:45:20.781Z,73.256000
2022-09-09T18:50:24.780Z,73.940000
2022-09-09T18:55:35.014Z,74.588000
2022-09-09T19:00:20.625Z,74.828000
2022-09-09T19:05:24.854Z,75.688571
2022-09-09T19:10:29.653Z,75.308000
2022-09-09T19:15:37.091Z,75.512000
2022-09-09T19:20:21.151Z,74.816000
2022-09-09T19:25:33.657Z,74.711429
2022-09-09T19:30:18.841Z,75.440000
2022-09-09T19:35:21.789Z,75.092000
2022-09-09T19:40:27.945Z,75.482857
2022-09-09T19:45:32.414Z,75.380000
2022-09-09T19:50:16.244Z,76.151429
2022-09-09T19:55:25.830Z,76.712000
2022-09-09T20:00:27.513Z,78.311429
2022-09-09T20:05:33.511Z,77.360000
2022-09-09T20:10:18.590Z,77.528000
2022-09-09T20:15:37.437Z,77.771429
2022-09-09T20:20:55.700Z,78.668000
2022-09-09T20:25:22.651Z,78.285714
2022-09-09T20:30:28.229Z,78.068000
2022-09-09T20:35:34.224Z,77.720000
2022-09-09T20:40:19.512Z,77.348000
2022-09-09T20:45:23.324Z,78.015714
2022-09-09T20:50:28.609Z,78.236000
2022-09-09T20:55:33.248Z,77.120000
2022-09-09T21:00:19.184Z,78.596000
2022-09-09T21:05:30.046Z,79.198571
2022-09-09T21:10:40.056Z,79.472000
2022-09-09T21:15:19.906Z,78.044000
2022-09-09T21:20:32.732Z,78.465714
2022-09-09T21:25:16.550Z,78.656000
2022-09-09T21:30:30.016Z,79.184000
2022-09-09T21:35:27.742Z,79.134286
2022-09-09T21:40:32.465Z,79.796000
2022-09-09T21:45:17.408Z,79.268000
2022-09-09T21:50:26.727Z,80.360000
2022-09-09T21:55:27.624Z,79.982857
2022-09-09T22:00:31.567Z,80.600000
2022-09-09T22:05:23.040Z,79.880000
2022-09-09T22:10:29.622Z,79.544000
2022-09-09T22:15:36.430Z,80.240000
2022-09-09T22:20:20.319Z,80.144000
2022-09-09T22:25:25.416Z,80.882857
2022-09-09T22:30:30.986Z,79.556000
2022-09-09T22:35:36.694Z,78.416000
2022-09-09T22:40:31.460Z,78.848000
2022-09-09T22:45:24.712Z,79.340000
2022-09-09T22:50:29.703Z,79.808000
2022-09-09T22:55:37.109Z,80.108000
2022-09-09T23:00:21.442Z,80.180000
2022-09-09T23:05:25.417Z,79.455714
2022-09-09T23:10:31.402Z,78.800000
2022-09-09T23:15:35.492Z,78.920000
2022-09-09T23:20:21.416Z,79.592000
2022-09-09T23:25:25.105Z,79.610000
2022-09-09T23:30:28.846Z,79.652000
2022-09-09T23:35:33.397Z,79.028000
2022-09-09T23:40:17.086Z,78.584000
2022-09-09T23:45:22.856Z,79.172000
2022-09-09T23:50:26.247Z,79.044286
2022-09-09T23:55:29.704Z,78.740000
